createdAt,value
2018-10-21T00:00:32.127Z,99.90
2018-10-21T00:03:00.560Z,99.90
2018-10-21T00:05:28.961Z,99.90
2018-10-21T00:07:57.350Z,99.90
2018-10-21T00:10:25.981Z,99.90
2018-10-21T00:12:54.372Z,99.90
2018-10-21T00:15:22.872Z,99.90
2018-10-21T00:17:51.418Z,99.90
2018-10-21T00:20:19.914Z,99.90
2018-10-21T00:22:48.458Z,99.90
2018-10-21T00:25:16.914Z,99.90
2018-10-21T00:27:45.364Z,99.90
2018-10-21T00:30:14.198Z,99.90
2018-10-21T00:32:47.611Z,99.90
2018-10-21T00:35:16.137Z,99.90
2018-10-21T00:37:44.636Z,99.90
2018-10-21T00:40:13.369Z,99.90
2018-10-21T00:42:41.807Z,99.90
2018-10-21T00:45:10.993Z,99.90
2018-10-21T00:47:39.444Z,99.90
2018-10-21T00:50:08.935Z,99.90
2018-10-21T00:52:37.346Z,99.90
2018-10-21T00:55:06.786Z,99.90
2018-10-21T00:57:35.229Z,99.90
2018-10-21T01:00:04.135Z,99.90
2018-10-21T01:02:32.834Z,99.90
2018-10-21T01:05:01.233Z,99.90
2018-10-21T01:07:30.184Z,99.90
2018-10-21T01:09:58.608Z,99.90
2018-10-21T01:12:27.079Z,99.90
2018-10-21T01:14:55.558Z,99.90
2018-10-21T01:17:24.233Z,99.90
2018-10-21T01:19:52.676Z,99.90
2018-10-21T01:22:21.103Z,99.90
2018-10-21T01:24:49.645Z,99.90
2018-10-21T01:27:18.098Z,99.90
2018-10-21T01:29:47.226Z,99.90
2018-10-21T01:32:17.081Z,99.90
2018-10-21T01:34:45.732Z,99.90
2018-10-21T01:37:14.515Z,99.90
2018-10-21T01:40:48.169Z,99.90
2018-10-21T01:43:17.733Z,99.90
2018-10-21T01:45:46.255Z,99.90
2018-10-21T01:48:15.907Z,99.90
2018-10-21T01:50:44.604Z,99.90
2018-10-21T01:53:14.129Z,99.90
2018-10-21T01:55:42.596Z,99.90
2018-10-21T01:58:11.019Z,99.90
2018-10-21T02:00:40.007Z,99.90
2018-10-21T02:03:08.521Z,99.90
2018-10-21T02:05:37.312Z,99.90
2018-10-21T02:08:06.307Z,99.90
2018-10-21T02:10:34.787Z,99.90
2018-10-21T02:13:03.246Z,99.90
2018-10-21T02:15:32.001Z,99.90
2018-10-21T02:18:00.630Z,99.90
2018-10-21T02:20:29.113Z,99.90
2018-10-21T02:22:57.810Z,99.90
2018-10-21T02:25:26.253Z,99.90
2018-10-21T02:27:54.796Z,99.90
2018-10-21T02:30:25.293Z,99.90
2018-10-21T02:32:54.165Z,99.90
2018-10-21T02:35:22.825Z,99.90
2018-10-21T02:37:51.644Z,99.90
2018-10-21T02:41:29.451Z,99.90
2018-10-21T02:43:57.854Z,99.90
2018-10-21T02:46:26.788Z,99.90
2018-10-21T02:48:56.211Z,99.90
2018-10-21T02:51:24.658Z,99.90
2018-10-21T02:53:53.131Z,99.90
2018-10-21T02:56:21.559Z,99.90
2018-10-21T02:58:50.046Z,99.90
2018-10-21T03:01:18.684Z,99.90
2018-10-21T03:03:47.083Z,99.90
2018-10-21T03:06:15.510Z,99.90
2018-10-21T03:08:44.474Z,99.90
2018-10-21T03:11:12.943Z,99.90
2018-10-21T03:13:41.811Z,99.90
2018-10-21T03:16:10.223Z,99.90
2018-10-21T03:18:38.616Z,99.90
2018-10-21T03:21:07.075Z,99.90
2018-10-21T03:23:35.713Z,99.90
2018-10-21T03:26:04.508Z,99.90
2018-10-21T03:28:33.298Z,99.90
2018-10-21T03:31:01.919Z,99.90
2018-10-21T03:33:30.486Z,99.90
2018-10-21T03:35:58.861Z,99.90
2018-10-21T03:38:27.505Z,99.90
2018-10-21T03:40:56.192Z,99.90
2018-10-21T03:43:24.613Z,99.90
2018-10-21T03:45:53.050Z,99.90
2018-10-21T03:48:21.448Z,99.90
2018-10-21T03:50:50.091Z,99.90
2018-10-21T03:53:18.447Z,99.90
2018-10-21T03:55:47.067Z,99.90
2018-10-21T03:58:15.766Z,99.90
2018-10-21T04:00:44.137Z,99.90
2018-10-21T04:03:12.510Z,99.90
2018-10-21T04:05:40.929Z,99.90
2018-10-21T04:08:09.785Z,99.90
2018-10-21T04:10:38.173Z,99.90
2018-10-21T04:13:06.822Z,99.90
2018-10-21T04:15:35.273Z,99.90
2018-10-21T04:18:03.707Z,99.90
2018-10-21T04:20:32.112Z,99.90
2018-10-21T04:23:01.668Z,99.90
2018-10-21T04:25:31.224Z,99.90
2018-10-21T04:28:00.437Z,99.90
2018-10-21T04:30:29.959Z,99.90
2018-10-21T04:34:00.613Z,99.90
2018-10-21T04:36:30.340Z,99.90
2018-10-21T04:40:14.872Z,99.90
2018-10-21T04:42:43.582Z,99.90
2018-10-21T04:45:12.780Z,99.90
2018-10-21T04:47:41.159Z,99.90
2018-10-21T04:52:46.517Z,99.90
2018-10-21T04:55:15.950Z,99.90
2018-10-21T04:57:45.602Z,99.90
2018-10-21T05:00:16.075Z,99.90
2018-10-21T05:02:44.456Z,99.90
2018-10-21T05:05:14.015Z,99.90
2018-10-21T05:07:42.930Z,99.90
2018-10-21T05:10:20.277Z,99.90
2018-10-21T05:12:48.806Z,99.90
2018-10-21T05:15:17.275Z,99.90
2018-10-21T05:17:45.783Z,99.90
2018-10-21T05:20:14.363Z,99.90
2018-10-21T05:22:43.127Z,99.90
2018-10-21T05:25:11.947Z,99.90
2018-10-21T05:27:40.565Z,99.90
2018-10-21T05:30:09.964Z,99.90
2018-10-21T05:32:38.359Z,99.90
2018-10-21T05:35:08.235Z,99.90
2018-10-21T05:37:37.427Z,99.90
2018-10-21T05:40:06.913Z,99.90
2018-10-21T05:42:35.329Z,99.90
2018-10-21T05:45:04.080Z,99.90
2018-10-21T05:47:32.762Z,99.90
2018-10-21T05:50:01.419Z,99.90
2018-10-21T05:52:29.853Z,99.90
2018-10-21T05:54:58.258Z,99.90
2018-10-21T05:57:26.682Z,99.90
2018-10-21T05:59:55.067Z,99.90
2018-10-21T06:02:23.462Z,99.90
2018-10-21T06:04:52.692Z,99.90
2018-10-21T06:07:21.287Z,99.90
2018-10-21T06:09:49.738Z,99.90
2018-10-21T06:12:18.150Z,99.90
2018-10-21T06:14:48.228Z,99.90
2018-10-21T06:17:21.822Z,99.90
2018-10-21T06:19:54.183Z,99.90
2018-10-21T06:22:22.589Z,99.90
2018-10-21T06:24:50.986Z,99.90
2018-10-21T06:27:19.434Z,99.90
2018-10-21T06:29:48.037Z,99.90
2018-10-21T06:32:16.448Z,99.90
2018-10-21T06:34:44.850Z,99.90
2018-10-21T06:37:13.315Z,99.90
2018-10-21T06:39:41.974Z,99.90
2018-10-21T06:42:10.625Z,99.90
2018-10-21T06:44:39.324Z,99.90
2018-10-21T06:47:07.751Z,99.90
2018-10-21T06:49:36.160Z,99.90
2018-10-21T06:52:04.656Z,99.90
2018-10-21T06:54:33.137Z,99.90
2018-10-21T06:57:02.276Z,99.90
2018-10-21T06:59:30.628Z,99.90
2018-10-21T07:01:59.373Z,99.90
2018-10-21T07:04:28.241Z,99.90
2018-10-21T07:06:56.625Z,99.90
2018-10-21T07:09:25.051Z,99.90
2018-10-21T07:11:53.459Z,99.90
2018-10-21T07:14:22.161Z,99.90
2018-10-21T07:16:50.691Z,99.90
2018-10-21T07:19:19.604Z,99.90
2018-10-21T07:21:48.281Z,99.90
2018-10-21T07:24:16.718Z,99.90
2018-10-21T07:26:45.412Z,99.90
2018-10-21T07:29:13.843Z,99.90
2018-10-21T07:31:42.282Z,99.90
2018-10-21T07:34:10.802Z,99.90
2018-10-21T07:36:39.449Z,99.90
2018-10-21T07:39:09.085Z,99.90
2018-10-21T07:41:37.521Z,99.90
2018-10-21T07:44:05.997Z,99.90
2018-10-21T07:46:34.625Z,99.90
2018-10-21T07:49:03.255Z,99.90
2018-10-21T07:51:31.616Z,99.90
2018-10-21T07:54:00.114Z,99.90
2018-10-21T07:56:28.547Z,99.90
2018-10-21T07:58:56.978Z,99.90
2018-10-21T08:01:25.439Z,99.90
2018-10-21T08:03:54.095Z,99.90
2018-10-21T08:06:34.961Z,99.90
2018-10-21T08:09:05.032Z,99.90
2018-10-21T08:11:33.477Z,99.90
2018-10-21T08:14:01.953Z,99.90
2018-10-21T08:16:30.654Z,99.90
2018-10-21T08:18:59.089Z,99.90
2018-10-21T08:21:27.527Z,99.90
2018-10-21T08:23:56.006Z,99.90
2018-10-21T08:26:24.509Z,99.90
2018-10-21T08:28:52.897Z,99.90
2018-10-21T08:31:21.311Z,99.90
2018-10-21T08:33:50.260Z,99.90
2018-10-21T08:36:18.681Z,99.90
2018-10-21T08:38:47.094Z,99.90
2018-10-21T08:41:15.553Z,99.90
2018-10-21T08:43:44.201Z,99.90
2018-10-21T08:46:12.699Z,99.90
2018-10-21T08:48:41.310Z,99.90
2018-10-21T08:51:09.708Z,99.90
2018-10-21T08:53:38.161Z,99.90
2018-10-21T08:56:06.608Z,99.90
2018-10-21T08:58:35.042Z,99.90
2018-10-21T09:01:03.809Z,99.90
2018-10-21T09:03:32.202Z,99.90
2018-10-21T09:06:00.637Z,99.90
2018-10-21T09:08:29.263Z,99.90
2018-10-21T09:10:57.701Z,99.90
2018-10-21T09:13:26.166Z,99.90
2018-10-21T09:15:54.686Z,99.90
2018-10-21T09:18:23.348Z,99.90
2018-10-21T09:20:51.831Z,99.90
2018-10-21T09:23:20.247Z,99.90
2018-10-21T09:25:48.695Z,99.90
2018-10-21T09:28:17.429Z,99.90
2018-10-21T09:30:45.944Z,99.90
2018-10-21T09:33:14.341Z,99.90
2018-10-21T09:35:42.817Z,99.90
2018-10-21T09:38:11.596Z,99.90
2018-10-21T09:40:40.102Z,99.90
2018-10-21T09:43:08.604Z,99.90
2018-10-21T09:45:37.158Z,99.90
2018-10-21T09:48:06.132Z,99.90
2018-10-21T09:50:34.654Z,99.90
2018-10-21T09:53:03.151Z,99.90
2018-10-21T09:55:32.178Z,99.90
2018-10-21T09:58:00.686Z,99.90
2018-10-21T10:00:34.628Z,99.90
2018-10-21T10:03:04.121Z,99.90
2018-10-21T10:05:33.180Z,99.90
2018-10-21T10:08:02.297Z,99.90
2018-10-21T10:10:31.035Z,99.90
2018-10-21T10:12:59.549Z,99.90
2018-10-21T10:15:27.987Z,99.90
2018-10-21T10:17:56.429Z,99.90
2018-10-21T10:20:24.859Z,99.90
2018-10-21T10:22:53.386Z,99.90
2018-10-21T10:25:21.897Z,99.90
2018-10-21T10:27:50.904Z,99.90
2018-10-21T10:30:19.423Z,99.90
2018-10-21T10:32:48.187Z,99.90
2018-10-21T10:35:16.613Z,99.90
2018-10-21T10:37:45.070Z,98.90
2018-10-21T10:40:14.245Z,96.10
2018-10-21T10:42:42.966Z,96.50
2018-10-21T10:45:11.469Z,95.50
2018-10-21T10:47:40.157Z,92.80
2018-10-21T10:50:09.959Z,91.50
2018-10-21T10:52:38.706Z,91.70
2018-10-21T10:55:07.420Z,91.30
2018-10-21T10:57:35.838Z,89.00
2018-10-21T11:00:04.562Z,90.30
2018-10-21T11:02:32.796Z,90.50
2018-10-21T11:05:01.526Z,93.00
2018-10-21T11:07:29.865Z,91.70
2018-10-21T11:09:58.368Z,91.60
2018-10-21T11:12:26.815Z,92.50
2018-10-21T11:14:55.229Z,90.50
2018-10-21T11:17:23.657Z,90.00
2018-10-21T11:19:52.116Z,87.60
2018-10-21T11:22:20.568Z,87.40
2018-10-21T11:24:49.503Z,87.80
2018-10-21T11:27:18.392Z,88.90
2018-10-21T11:29:48.115Z,85.10
2018-10-21T11:32:16.504Z,83.50
2018-10-21T11:34:44.926Z,84.20
2018-10-21T11:37:13.490Z,84.70
2018-10-21T11:39:42.042Z,84.90
2018-10-21T11:42:10.496Z,81.80
2018-10-21T11:44:39.426Z,82.20
2018-10-21T11:47:08.077Z,83.10
2018-10-21T11:49:36.518Z,83.90
2018-10-21T11:52:05.406Z,81.90
2018-10-21T11:54:34.063Z,79.40
2018-10-21T11:57:02.464Z,81.40
2018-10-21T11:59:30.945Z,82.20
2018-10-21T12:02:00.028Z,84.80
2018-10-21T12:04:28.510Z,86.10
2018-10-21T12:06:57.023Z,86.00
2018-10-21T12:09:25.541Z,86.70
2018-10-21T12:11:54.301Z,86.70
2018-10-21T12:14:22.927Z,85.70
2018-10-21T12:16:51.562Z,86.10
2018-10-21T12:19:20.509Z,84.50
2018-10-21T12:21:48.926Z,83.90
2018-10-21T12:24:17.418Z,83.30
2018-10-21T12:26:45.899Z,80.40
2018-10-21T12:29:14.387Z,80.50
2018-10-21T12:31:42.808Z,79.60
2018-10-21T12:34:11.291Z,75.00
2018-10-21T12:36:39.673Z,76.80
2018-10-21T12:39:09.348Z,75.10
2018-10-21T12:41:38.223Z,76.20
2018-10-21T12:44:06.647Z,75.00
2018-10-21T12:46:35.159Z,76.20
2018-10-21T12:49:03.799Z,77.20
2018-10-21T12:51:32.631Z,74.10
2018-10-21T12:54:01.522Z,76.40
2018-10-21T12:56:29.935Z,75.40
2018-10-21T12:58:58.338Z,75.10
2018-10-21T13:01:26.878Z,75.50
2018-10-21T13:03:55.746Z,74.20
2018-10-21T13:06:24.167Z,74.90
2018-10-21T13:08:52.585Z,73.00
2018-10-21T13:11:21.683Z,69.90
2018-10-21T13:13:51.141Z,72.60
2018-10-21T13:16:19.547Z,74.10
2018-10-21T13:18:48.036Z,73.40
2018-10-21T13:21:16.600Z,72.50
2018-10-21T13:23:45.148Z,72.60
2018-10-21T13:26:13.705Z,72.40
2018-10-21T13:28:42.900Z,68.60
2018-10-21T13:31:11.647Z,69.10
2018-10-21T13:33:40.342Z,68.70
2018-10-21T13:36:08.821Z,70.00
2018-10-21T13:38:37.298Z,70.70
2018-10-21T13:41:05.952Z,71.60
2018-10-21T13:43:34.389Z,72.90
2018-10-21T13:46:02.855Z,72.70
2018-10-21T13:48:31.267Z,72.30
2018-10-21T13:50:59.846Z,71.80
2018-10-21T13:53:28.567Z,73.10
2018-10-21T13:55:57.060Z,73.40
2018-10-21T13:58:25.526Z,74.50
2018-10-21T14:00:54.074Z,74.70
2018-10-21T14:03:25.603Z,75.10
2018-10-21T14:05:54.135Z,75.00
2018-10-21T14:08:22.680Z,74.80
2018-10-21T14:10:51.631Z,76.10
2018-10-21T14:13:20.375Z,74.70
2018-10-21T14:15:49.043Z,75.10
2018-10-21T14:18:18.523Z,74.40
2018-10-21T14:20:47.029Z,74.20
2018-10-21T14:23:15.461Z,74.80
2018-10-21T14:25:44.369Z,74.20
2018-10-21T14:28:12.853Z,73.40
2018-10-21T14:30:41.685Z,74.80
2018-10-21T14:33:10.265Z,76.10
2018-10-21T14:35:38.750Z,77.00
2018-10-21T14:38:07.284Z,78.00
2018-10-21T14:40:35.665Z,77.10
2018-10-21T14:43:04.140Z,76.20
2018-10-21T14:45:32.619Z,75.10
2018-10-21T14:48:01.345Z,75.80
2018-10-21T14:50:29.898Z,74.80
2018-10-21T14:52:58.485Z,75.10
2018-10-21T14:55:27.164Z,75.30
2018-10-21T14:57:55.690Z,79.00
2018-10-21T15:00:24.246Z,80.50
2018-10-21T15:02:53.056Z,80.60
2018-10-21T15:05:21.499Z,81.00
2018-10-21T15:07:49.986Z,81.80
2018-10-21T15:10:18.577Z,82.00
2018-10-21T15:12:47.522Z,82.10
2018-10-21T15:15:15.967Z,80.90
2018-10-21T15:17:44.484Z,80.80
2018-10-21T15:20:14.275Z,81.80
2018-10-21T15:22:42.886Z,82.40
2018-10-21T15:25:12.393Z,83.30
2018-10-21T15:27:41.348Z,83.30
2018-10-21T15:30:10.788Z,83.70
2018-10-21T15:32:39.974Z,84.70
2018-10-21T15:35:08.643Z,84.60
2018-10-21T15:37:37.129Z,85.10
2018-10-21T15:40:07.438Z,85.30
2018-10-21T15:42:35.932Z,86.10
2018-10-21T15:45:04.824Z,86.40
2018-10-21T15:47:33.521Z,87.30
2018-10-21T15:50:02.066Z,87.70
2018-10-21T15:52:30.956Z,88.40
2018-10-21T15:54:59.477Z,88.10
2018-10-21T15:57:28.157Z,88.30
2018-10-21T15:59:56.610Z,88.70
2018-10-21T16:02:25.139Z,89.30
2018-10-21T16:04:53.616Z,89.20
2018-10-21T16:07:22.069Z,89.20
2018-10-21T16:09:50.814Z,90.10
2018-10-21T16:12:19.249Z,90.30
2018-10-21T16:14:47.715Z,90.80
2018-10-21T16:17:16.169Z,90.90
2018-10-21T16:19:44.733Z,91.10
2018-10-21T16:22:13.259Z,91.40
2018-10-21T16:24:41.679Z,91.20
2018-10-21T16:27:10.248Z,91.20
2018-10-21T16:29:38.694Z,91.40
2018-10-21T16:32:07.232Z,91.30
2018-10-21T16:34:37.490Z,91.70
2018-10-21T16:37:06.210Z,91.90
2018-10-21T16:39:34.671Z,92.00
2018-10-21T16:42:03.096Z,91.90
2018-10-21T16:44:31.519Z,92.10
2018-10-21T16:46:59.960Z,91.80
2018-10-21T16:49:28.406Z,91.90
2018-10-21T16:51:57.311Z,91.90
2018-10-21T16:54:25.943Z,92.10
2018-10-21T16:56:54.430Z,91.90
2018-10-21T16:59:23.213Z,92.40
2018-10-21T17:01:51.588Z,92.80
2018-10-21T17:04:20.347Z,92.80
2018-10-21T17:06:48.781Z,92.70
2018-10-21T17:09:17.488Z,93.00
2018-10-21T17:11:45.869Z,93.40
2018-10-21T17:14:14.330Z,93.60
2018-10-21T17:16:43.565Z,93.90
2018-10-21T17:19:12.102Z,94.10
2018-10-21T17:21:40.527Z,94.60
2018-10-21T17:24:08.993Z,95.20
2018-10-21T17:26:37.892Z,95.40
2018-10-21T17:29:06.770Z,95.70
2018-10-21T17:31:35.483Z,96.90
2018-10-21T17:34:04.708Z,97.20
2018-10-21T17:36:34.185Z,97.40
2018-10-21T17:39:03.364Z,97.80
2018-10-21T17:41:32.077Z,98.00
2018-10-21T17:44:00.573Z,98.00
2018-10-21T17:46:29.192Z,98.00
2018-10-21T17:48:57.981Z,98.20
2018-10-21T17:51:26.757Z,98.20
2018-10-21T17:53:55.239Z,98.20
2018-10-21T17:56:23.704Z,98.40
2018-10-21T17:58:52.534Z,98.90
2018-10-21T18:01:21.196Z,99.00
2018-10-21T18:03:50.134Z,99.20
2018-10-21T18:06:19.405Z,99.40
2018-10-21T18:08:48.605Z,99.50
2018-10-21T18:11:17.516Z,99.70
2018-10-21T18:13:46.499Z,99.80
2018-10-21T18:16:15.506Z,99.90
2018-10-21T18:18:44.274Z,99.90
2018-10-21T18:21:13.776Z,99.90
2018-10-21T18:23:43.237Z,99.90
2018-10-21T18:26:12.643Z,99.90
2018-10-21T18:28:41.336Z,99.90
2018-10-21T18:31:10.895Z,99.90
2018-10-21T18:33:39.459Z,99.90
2018-10-21T18:36:08.309Z,99.90
2018-10-21T18:38:37.666Z,99.90
2018-10-21T18:41:07.125Z,99.90
2018-10-21T18:43:35.847Z,99.90
2018-10-21T18:46:04.806Z,99.90
2018-10-21T18:48:34.135Z,99.90
2018-10-21T18:51:03.082Z,99.90
2018-10-21T18:56:04.248Z,99.90
2018-10-21T18:58:34.356Z,99.90
2018-10-21T19:01:03.687Z,99.90
2018-10-21T19:03:33.708Z,99.90
2018-10-21T19:06:02.503Z,99.90
2018-10-21T19:08:31.572Z,99.90
2018-10-21T19:11:00.434Z,99.90
2018-10-21T19:13:29.314Z,99.90
2018-10-21T19:15:57.959Z,99.90
2018-10-21T19:18:27.553Z,99.90
2018-10-21T19:20:56.213Z,99.90
2018-10-21T19:23:24.971Z,99.90
2018-10-21T19:25:53.687Z,99.90
2018-10-21T19:28:22.219Z,99.90
2018-10-21T19:30:51.136Z,99.90
2018-10-21T19:33:20.238Z,99.90
2018-10-21T19:35:49.593Z,99.90
2018-10-21T19:38:20.257Z,99.90
2018-10-21T19:40:50.356Z,99.90
2018-10-21T19:43:20.289Z,99.90
2018-10-21T19:45:49.465Z,99.90
2018-10-21T19:48:18.667Z,99.90
2018-10-21T19:50:48.202Z,99.90
2018-10-21T19:53:16.875Z,99.90
2018-10-21T19:55:45.537Z,99.90
2018-10-21T19:58:15.021Z,99.90
2018-10-21T20:00:43.988Z,99.90
2018-10-21T20:03:12.747Z,99.90
2018-10-21T20:05:42.738Z,99.90
2018-10-21T20:08:13.218Z,99.90
2018-10-21T20:10:42.103Z,99.90
2018-10-21T20:13:11.061Z,99.90
2018-10-21T20:15:40.682Z,99.90
2018-10-21T20:18:10.606Z,99.90
2018-10-21T20:20:39.436Z,99.90
2018-10-21T20:23:08.341Z,99.90
2018-10-21T20:25:37.436Z,99.90
2018-10-21T20:28:07.083Z,99.90
2018-10-21T20:30:36.113Z,99.90
2018-10-21T20:33:04.614Z,99.90
2018-10-21T20:35:33.060Z,99.90
2018-10-21T20:38:02.197Z,99.90
2018-10-21T20:40:30.578Z,99.90
2018-10-21T20:42:59.268Z,99.90
2018-10-21T20:45:27.823Z,99.90
2018-10-21T20:47:57.219Z,99.90
2018-10-21T20:50:25.971Z,99.90
2018-10-21T20:52:54.487Z,99.90
2018-10-21T20:55:23.465Z,99.90
2018-10-21T20:57:52.411Z,99.90
2018-10-21T21:00:21.861Z,99.90
2018-10-21T21:02:50.381Z,99.90
2018-10-21T21:05:18.930Z,99.90
2018-10-21T21:07:47.684Z,99.90
2018-10-21T21:10:16.588Z,99.90
2018-10-21T21:12:45.080Z,99.90
2018-10-21T21:15:13.574Z,99.90
2018-10-21T21:17:42.182Z,99.90
2018-10-21T21:20:11.067Z,99.90
2018-10-21T21:22:40.003Z,99.90
2018-10-21T21:25:08.458Z,99.90
2018-10-21T21:27:37.301Z,99.90
2018-10-21T21:30:07.167Z,99.90
2018-10-21T21:32:35.870Z,99.90
2018-10-21T21:35:04.868Z,99.90
2018-10-21T21:37:33.676Z,99.90
2018-10-21T21:40:02.363Z,99.90
2018-10-21T21:42:31.160Z,99.90
2018-10-21T21:45:00.002Z,99.90
2018-10-21T21:47:28.456Z,99.90
2018-10-21T21:49:56.991Z,99.90
2018-10-21T21:52:25.841Z,99.90
2018-10-21T21:54:54.714Z,99.90
2018-10-21T21:57:23.298Z,99.90
2018-10-21T21:59:52.067Z,99.90
2018-10-21T22:02:20.828Z,99.90
2018-10-21T22:04:49.222Z,99.90
2018-10-21T22:07:18.192Z,99.90
2018-10-21T22:09:47.024Z,99.90
2018-10-21T22:12:15.482Z,99.90
2018-10-21T22:14:44.608Z,99.90
2018-10-21T22:17:13.443Z,99.90
2018-10-21T22:19:42.463Z,99.90
2018-10-21T22:22:11.443Z,99.90
2018-10-21T22:24:39.781Z,99.90
2018-10-21T22:27:08.209Z,99.90
2018-10-21T22:29:36.909Z,99.90
2018-10-21T22:32:05.352Z,99.90
2018-10-21T22:34:33.898Z,99.90
2018-10-21T22:37:03.587Z,99.90
2018-10-21T22:39:32.507Z,99.90
2018-10-21T22:42:01.247Z,99.90
2018-10-21T22:44:30.188Z,99.90
2018-10-21T22:46:58.988Z,99.90
2018-10-21T22:49:27.472Z,99.90
2018-10-21T22:51:56.097Z,99.90
2018-10-21T22:54:24.759Z,99.90
2018-10-21T22:56:53.590Z,99.90
2018-10-21T22:59:22.141Z,99.90
2018-10-21T23:01:50.562Z,99.90
2018-10-21T23:04:19.330Z,99.90
2018-10-21T23:06:47.996Z,99.90
2018-10-21T23:09:16.701Z,99.90
2018-10-21T23:11:45.288Z,99.90
2018-10-21T23:14:14.057Z,99.90
2018-10-21T23:16:43.449Z,99.90
2018-10-21T23:19:23.226Z,99.90
2018-10-21T23:21:52.017Z,99.90
2018-10-21T23:24:20.630Z,99.90
2018-10-21T23:26:49.376Z,99.90
2018-10-21T23:29:17.830Z,99.90
2018-10-21T23:31:46.244Z,99.90
2018-10-21T23:34:15.007Z,99.90
2018-10-21T23:36:43.362Z,99.90
2018-10-21T23:39:12.452Z,99.90
2018-10-21T23:41:40.860Z,99.90
2018-10-21T23:44:09.392Z,99.90
2018-10-21T23:46:38.346Z,99.90
2018-10-21T23:49:06.849Z,99.90
2018-10-21T23:51:35.732Z,99.90
2018-10-21T23:54:04.551Z,99.90
2018-10-21T23:56:33.318Z,99.90
2018-10-21T23:59:01.850Z,99.90
